KCUH

Cushing Municipal Airport

Cushing, Oklahoma, USA
METAR KCUH 151835Z AUTO 03011KT 4SM BR OVC013 M01/M03 A2986 RMK AO2 T10151033
Observed Flight Rules
Feb-15 @ 18:35 UTC (29 minutes ago) Marginal Visual Flight Rules
Wind Visibility Clouds Conditions
30° at 11 knots 4 miles
  • Overcast at 1,300' AGL
  • Mist
Temperatures Readings
Current -2°C / 28°F
Dewpoint -3°C / 27°F
Humidity 93%
Altimeter 29.86" Hg
Pressure 1011.22 hPa
Elevation 279
METAR KCUH 151835Z AUTO 03011KT 4SM BR OVC013 M01/M03 A2986 RMK AO2 T10151033
Observed Flight Rules
Feb-15 @ 18:35 UTC
(29 minutes ago)
MVFR
Wind Visibility
30° at 11 knots 4 miles
Clouds
  • Overcast at 1,300' AGL
Conditions
  • Mist
Temperature Dewpoint
-2°C / 28°F -3°C / 27°F
Humidity Altimeter Pressure
93% 29.86" Hg 1011.22 hPa